Allegre, Kentucky
Current Conditions -  °F | °C
As of 6:58 PM on Thursday 18 Dec 2014 (Local Time) from KHOP Reporting Station
Overcast Overcast  
Wind Chill: 34°   Ceiling: 4700
Heat Index: 34°   Visibility: 10mi
Dew Point: 30°   Wind: 3mph
Humidity: 85%   Direction: 20°NNE
Pressure: 30.24"   Gusts: NA
Location:  36.93°N, 87.22°W
Report Text: KHOP 190058Z AUTO 02003KT 10SM OVC047 01/M01 A3024 RMK AO2 SLP247 T00131010
Loading
Personal Weather Stations






























Interactive Weather Map New forecast layout! Learn more

10-Day Weather Forecast

Advertisements
Track Severe Weather on mobile